Welcome to Northern Hawkes Bay. New Zealand.
PWS Header
      nz Flag



Hit Counter


W3C Valid W3C Valid logo


    Wairoa

Select any of the Stations below to visit their websites.










Historic Data from Weather Underground
Select the location of interest below. Wairoa is the default. Please have patience, this Data is slow to load in.
Northern Hawkes Bay Historical Data
Daily Summary for January 25, 2017 Units:  English    Metric   Both
« Previous Day
Next Day »
Daily Weekly Monthly Yearly Custom
  High: Low: Average:
Temperature: 76.5 °F 59.5 °F 68.2 °F
Dew Point: 56.5 °F 39.6 °F 51.4 °F
Humidity: 78% 38% 56%
Wind Speed: 19mph 0mph 7.5mph
Wind Gust: 30.4mph - -
Wind- - West
Pressure: 30 in 29.6 in -
Precipitation: 0 in    
Historical Graphs
 
 
Tabular Data for January 25, 2017
Time Temperature Dew Point Pressure Wind Wind Speed Wind Gust Humidity Rainfall Rate (Hourly) solar
00:05 66.4 °F 50.7 °F 30 in North 4.5 mph 8.3 mph 57% 0 in 0 W/m2
00:10 66.2 °F 50.5 °F 30 in North 3.1 mph 8.3 mph 57% 0 in 0 W/m2
00:15 66 °F 50.7 °F 30 in North 2.2 mph 8.3 mph 58% 0 in 0 W/m2
00:20 65.8 °F 50.7 °F 30 in North 3.1 mph 8.3 mph 58% 0 in 0 W/m2
00:25 65.7 °F 50.5 °F 29.9 in NNW 4.5 mph 9.2 mph 58% 0 in 0 W/m2
00:30 65.7 °F 50.5 °F 30 in North 6 mph 9.2 mph 58% 0 in 0 W/m2
00:35 65.8 °F 50.7 °F 30 in North 3.1 mph 9.8 mph 58% 0 in 0 W/m2
00:40 65.7 °F 50.5 °F 29.9 in North 2.2 mph 9.8 mph 58% 0 in 0 W/m2
00:45 65.5 °F 50.7 °F 29.9 in North 3.1 mph 9.2 mph 59% 0 in 0 W/m2
00:50 65.3 °F 50.5 °F 29.9 in North 2.2 mph 9.2 mph 59% 0 in 0 W/m2
00:55 65.3 °F 50.5 °F 29.9 in NNW 3.8 mph 9.2 mph 59% 0 in 0 W/m2
01:00 65.3 °F 51.1 °F 29.9 in NNW 3.1 mph 9.2 mph 60% 0 in 0 W/m2
01:05 65.3 °F 51.1 °F 29.9 in NNW 5.4 mph 9.2 mph 60% 0 in 0 W/m2
01:10 65.3 °F 51.1 °F 29.9 in NNW 7.6 mph 11.4 mph 60% 0 in 0 W/m2
01:15 65.5 °F 51.3 °F 29.9 in NNW 3.8 mph 11.4 mph 60% 0 in 0 W/m2
01:20 65.3 °F 51.1 °F 29.9 in North 4.5 mph 11.4 mph 60% 0 in 0 W/m2
01:25 65.1 °F 51.4 °F 29.9 in North 4.5 mph 6.9 mph 61% 0 in 0 W/m2
01:30 64.9 °F 51.3 °F 29.9 in North 3.1 mph 6.9 mph 61% 0 in 0 W/m2
01:35 64.9 °F 51.3 °F 29.9 in North 3.1 mph 8.3 mph 61% 0 in 0 W/m2
01:40 64.9 °F 51.6 °F 29.9 in NNE 5.4 mph 8.3 mph 62% 0 in 0 W/m2
01:45 64.9 °F 51.6 °F 29.9 in North 3.8 mph 9.2 mph 62% 0 in 0 W/m2
01:50 64.8 °F 51.4 °F 29.9 in North 3.8 mph 9.2 mph 62% 0 in 0 W/m2
01:55 64.6 °F 51.6 °F 29.9 in NNE 6 mph 10.7 mph 63% 0 in 0 W/m2
02:00 64.8 °F 52.3 °F 29.9 in North 4.5 mph 10.7 mph 64% 0 in 0 W/m2
02:06 64.8 °F 52.3 °F 29.9 in North 3.8 mph 10.7 mph 64% 0 in 0 W/m2
02:11 64.8 °F 52.3 °F 29.9 in North 5.4 mph 10.7 mph 64% 0 in 0 W/m2
02:16 64.9 °F 52.5 °F 29.9 in North 7.6 mph 9.8 mph 64% 0 in 0 W/m2
02:21 64.9 °F 52.5 °F 29.9 in North 4.5 mph 9.8 mph 64% 0 in 0 W/m2
02:26 64.8 °F 52.3 °F 29.9 in North 3.1 mph 9.2 mph 64% 0 in 0 W/m2
02:31 64.4 °F 52.3 °F 29.9 in North 5.4 mph 8.3 mph 65% 0 in 0 W/m2
02:36 64.2 °F 52.2 °F 29.9 in North 3.1 mph 8.3 mph 65% 0 in 0 W/m2
02:41 64 °F 52.2 °F 29.9 in North 3.1 mph 8.3 mph 65% 0 in 0 W/m2
02:46 63.7 °F 51.6 °F 29.9 in North 3.1 mph 6.9 mph 65% 0 in 0 W/m2
02:51 63.5 °F 52 °F 29.9 in North 2.2 mph 6 mph 66% 0 in 0 W/m2
02:56 63.1 °F 52 °F 29.9 in North 3.1 mph 5.4 mph 67% 0 in 0 W/m2
03:01 63 °F 52.3 °F 29.9 in North 3.8 mph 5.4 mph 68% 0 in 0 W/m2
03:06 62.8 °F 52.5 °F 29.9 in North 3.8 mph 6.9 mph 69% 0 in 0 W/m2
03:11 62.8 °F 52.5 °F 29.9 in North 3.1 mph 7.6 mph 69% 0 in 0 W/m2
03:16 62.4 °F 52.5 °F 29.9 in NNW 0.7 mph 7.6 mph 70% 0 in 0 W/m2
03:21 62.1 °F 52.5 °F 29.9 in NNW 1.6 mph 5.4 mph 71% 0 in 0 W/m2
03:26 61.9 °F 52.9 °F 29.9 in NNW 1.6 mph 4.5 mph 72% 0 in 0 W/m2
03:31 61.3 °F 52.3 °F 29.9 in NW 2.2 mph 3.8 mph 72% 0 in 0 W/m2
03:36 61.2 °F 52.5 °F 29.9 in NNW 3.1 mph 4.5 mph 73% 0 in 0 W/m2
03:41 61 °F 52.3 °F 29.9 in NW 3.1 mph 5.4 mph 73% 0 in 0 W/m2
03:46 61 °F 52.3 °F 29.9 in NW 2.2 mph 5.4 mph 73% 0 in 0 W/m2
03:51 61 °F 52.5 °F 29.9 in NW 2.2 mph 4.5 mph 74% 0 in 0 W/m2
03:56 61.2 °F 52.9 °F 29.9 in NNW 3.1 mph 6 mph 74% 0 in 0 W/m2
04:01 61.2 °F 52.5 °F 29.9 in NNW 2.2 mph 6 mph 73% 0 in 0 W/m2
04:06 61.2 °F 52.5 °F 29.9 in NNW 3.1 mph 5.4 mph 73% 0 in 0 W/m2
04:10 61.3 °F 52.5 °F 29.9 in NNE 3.8 mph 4.5 mph 73% 0 in 0 W/m2
04:15 61.5 °F 52.9 °F 29.9 in North 1.6 mph 5.4 mph 73% 0 in 0 W/m2
04:20 61.3 °F 52.5 °F 29.9 in North 1.6 mph 5.4 mph 73% 0 in 0 W/m2
04:25 61.3 °F 52.5 °F 29.9 in North 1.6 mph 3.8 mph 73% 0 in 0 W/m2
04:30 61.5 °F 52.9 °F 29.9 in NNW 1.6 mph 3.8 mph 73% 0 in 0 W/m2
04:35 61.5 °F 52.9 °F 29.9 in Calm   4.5 mph 73% 0 in 0 W/m2
04:40 61.3 °F 52.5 °F 29.9 in NE 0.7 mph 4.5 mph 73% 0 in 0 W/m2
04:45 61.3 °F 52.5 °F 29.9 in NNE 2.2 mph 3.1 mph 73% 0 in 0 W/m2
04:50 61.3 °F 52.5 °F 29.9 in North 0.7 mph 4.5 mph 73% 0 in 0 W/m2
04:55 61.2 °F 52.5 °F 29.9 in NNW 1.6 mph 4.5 mph 73% 0 in 0 W/m2
05:00 61 °F 52.3 °F 29.9 in Calm   2.2 mph 73% 0 in 0 W/m2
05:06 60.4 °F 52.5 °F 29.9 in Calm   1.6 mph 75% 0 in 0 W/m2
05:11 59.9 °F 52 °F 29.9 in Calm   0.7 mph 75% 0 in 0 W/m2
05:16 59.5 °F 51.6 °F 29.9 in Calm     75% 0 in 0 W/m2
05:21 59.5 °F 52 °F 29.9 in Calm   1.6 mph 76% 0 in 0 W/m2
05:26 59.7 °F 52.5 °F 29.9 in North 0.7 mph 2.2 mph 77% 0 in 0 W/m2
05:31 59.5 °F 52.3 °F 29.9 in North 0.7 mph 3.1 mph 77% 0 in 0 W/m2
05:36 59.7 °F 52.9 °F 29.9 in North 2.2 mph 3.8 mph 78% 0 in 0 W/m2
05:41 59.9 °F 53.1 °F 29.8 in North 1.6 mph 6 mph 78% 0 in 0 W/m2
05:46 60.6 °F 53.8 °F 29.9 in North 3.1 mph 6.9 mph 78% 0 in 0 W/m2
05:51 61.5 °F 53.4 °F 29.8 in North 2.2 mph 8.3 mph 75% 0 in 0 W/m2
05:56 61.9 °F 53.4 °F 29.8 in North 1.6 mph 8.3 mph 74% 0 in 0 W/m2
06:01 61.7 °F 53.1 °F 29.8 in NNE 3.1 mph 4.5 mph 73% 0 in 0 W/m2
06:06 61.9 °F 53.1 °F 29.8 in NNE 3.1 mph 5.4 mph 73% 0 in 0 W/m2
06:11 62.2 °F 53.4 °F 29.8 in NNE 4.5 mph 7.6 mph 73% 0 in 0 W/m2
06:16 63.1 °F 53.2 °F 29.8 in North 5.4 mph 13 mph 70% 0 in 0 W/m2
06:21 63.5 °F 52.9 °F 29.8 in North 5.4 mph 13 mph 68% 0 in 2 W/m2
06:26 63.5 °F 52.9 °F 29.8 in North 1.6 mph 8.3 mph 68% 0 in 4 W/m2
06:31 63.3 °F 52.5 °F 29.8 in NNE 3.1 mph 8.3 mph 68% 0 in 6 W/m2
06:36 63.7 °F 52.5 °F 29.8 in North 6 mph 9.2 mph 67% 0 in 10 W/m2
06:41 64.2 °F 52.5 °F 29.8 in NNW 3.1 mph 12.1 mph 66% 0 in 16 W/m2
06:46 64.2 °F 52.5 °F 29.8 in NNW 2.2 mph 12.1 mph 66% 0 in 16 W/m2
06:51 64.2 °F 52.5 °F 29.8 in NNW 4.5 mph 9.8 mph 66% 0 in 18 W/m2
06:56 64.4 °F 52.9 °F 29.8 in NNW 3.8 mph 9.8 mph 66% 0 in 23 W/m2
07:01 64.4 °F 52.9 °F 29.8 in NNW 4.5 mph 9.8 mph 66% 0 in 29 W/m2
07:06 64.6 °F 53.1 °F 29.8 in North 4.5 mph 7.6 mph 66% 0 in 36 W/m2
07:11 64.8 °F 53.2 °F 29.8 in North 3.8 mph 7.6 mph 66% 0 in 38 W/m2
07:16 64.8 °F 53.2 °F 29.8 in NNW 3.1 mph 7.6 mph 66% 0 in 46 W/m2
07:21 64.6 °F 53.1 °F 29.8 in NW 3.8 mph 5.4 mph 66% 0 in 58 W/m2
07:26 64.2 °F 53.1 °F 29.8 in NW 1.6 mph 5.4 mph 67% 0 in 66 W/m2
07:31 64.4 °F 53.2 °F 29.8 in North 1.6 mph 5.4 mph 67% 0 in 67 W/m2
07:36 64.6 °F 53.4 °F 29.8 in NNE 1.6 mph 5.4 mph 67% 0 in 77 W/m2
07:41 64.6 °F 53.4 °F 29.8 in North 0.7 mph 3.8 mph 67% 0 in 76 W/m2
07:46 64.6 °F 53.1 °F 29.8 in North 0.7 mph 3.8 mph 66% 0 in 75 W/m2
07:51 64.9 °F 53.2 °F 29.8 in North 3.1 mph 6 mph 66% 0 in 77 W/m2
07:56 65.1 °F 53.1 °F 29.8 in North 4.5 mph 7.6 mph 65% 0 in 80 W/m2
08:16 67.6 °F 50.9 °F 29.8 in NW 8.3 mph 18.3 mph 55% 0 in 160 W/m2
08:21 67.8 °F 50.5 °F 29.8 in NW 9.8 mph 18.3 mph 54% 0 in 149 W/m2
08:26 68 °F 50.4 °F 29.8 in NNW 6.9 mph 13.6 mph 53% 0 in 127 W/m2
08:31 68 °F 50.4 °F 29.8 in NNW 5.4 mph 13 mph 53% 0 in 125 W/m2
08:36 68 °F 50.4 °F 29.8 in NNW 9.8 mph 14.5 mph 53% 0 in 151 W/m2
08:41 68 °F 50.4 °F 29.8 in NNW 4.5 mph 14.5 mph 53% 0 in 130 W/m2
08:46 68 °F 50.4 °F 29.8 in NNW 8.3 mph 13.6 mph 53% 0 in 147 W/m2
08:51 68.2 °F 50.4 °F 29.8 in NNW 9.8 mph 15.2 mph 53% 0 in 173 W/m2
08:56 68.2 °F 49.8 °F 29.8 in NNW 5.4 mph 17.4 mph 52% 0 in 202 W/m2
09:01 68.5 °F 49.6 °F 29.8 in North 12.1 mph 19 mph 51% 0 in 222 W/m2
09:06 68.7 °F 49.5 °F 29.8 in North 9.2 mph 19.7 mph 50% 0 in 225 W/m2
09:11 68.5 °F 48.6 °F 29.8 in NW 8.3 mph 23.5 mph 49% 0 in 183 W/m2
09:16 68.5 °F 49.3 °F 29.8 in NNW 14.5 mph 23.5 mph 50% 0 in 145 W/m2
09:21 68.4 °F 48.9 °F 29.8 in NNW 6.9 mph 20.6 mph 50% 0 in 146 W/m2
09:26 68.2 °F 49.5 °F 29.8 in North 9.2 mph 20.6 mph 51% 0 in 179 W/m2
09:31 68.4 °F 49.6 °F 29.8 in NNW 5.4 mph 15.9 mph 51% 0 in 209 W/m2
09:36 68.4 °F 48.6 °F 29.8 in NNW 14.5 mph 22.8 mph 49% 0 in 212 W/m2
09:41 68.4 °F 48.6 °F 29.8 in NNW 12.1 mph 22.8 mph 49% 0 in 193 W/m2
09:46 68.4 °F 48.6 °F 29.8 in NNW 12.1 mph 22.8 mph 49% 0 in 194 W/m2
09:51 68.4 °F 48.6 °F 29.8 in NNW 12.1 mph 20.6 mph 49% 0 in 194 W/m2
09:56 68.5 °F 48 °F 29.8 in NNW 9.8 mph 22.8 mph 48% 0 in 224 W/m2
10:01 68.7 °F 47.7 °F 29.8 in NNW 13.6 mph 22.8 mph 47% 0 in 320 W/m2
10:06 69.3 °F 48.7 °F 29.8 in NW 10.7 mph 19.7 mph 48% 0 in 354 W/m2
10:11 69.6 °F 47.8 °F 29.8 in NW 15.2 mph 21.3 mph 46% 0 in 300 W/m2
10:16 69.6 °F 47.8 °F 29.8 in NNW 15.2 mph 23.5 mph 46% 0 in 486 W/m2
10:21 69.8 °F 47.5 °F 29.8 in NNW 13 mph 25.9 mph 45% 0 in 663 W/m2
10:26 70.2 °F 47.8 °F 29.8 in NNW 15.9 mph 25.9 mph 45% 0 in 610 W/m2
10:31 70.2 °F 47.3 °F 29.8 in NNW 15.9 mph 25.1 mph 44% 0 in 432 W/m2
10:36 70.2 °F 47.3 °F 29.8 in NNW 10.7 mph 25.1 mph 44% 0 in 451 W/m2
10:41 70.2 °F 46.6 °F 29.8 in NNW 14.5 mph 28.2 mph 43% 0 in 318 W/m2
10:46 70.2 °F 46.6 °F 29.8 in North 13.6 mph 28.2 mph 43% 0 in 311 W/m2
10:51 69.8 °F 46.2 °F 29.8 in NW 18.3 mph 25.1 mph 43% 0 in 308 W/m2
10:56 70.2 °F 46.6 °F 29.8 in NW 9.2 mph 25.1 mph 43% 0 in 309 W/m2
11:01 70.7 °F 46.6 °F 29.8 in NW 7.6 mph 22.1 mph 42% 0 in 316 W/m2
11:06 70.9 °F 46.8 °F 29.8 in NW 10.7 mph 19.7 mph 42% 0 in 314 W/m2
11:11 71.4 °F 47.1 °F 29.8 in NNW 8.3 mph 19 mph 42% 0 in 308 W/m2
11:16 71.8 °F 46.8 °F 29.8 in NNW 10.7 mph 17.4 mph 41% 0 in 718 W/m2
11:21 72.9 °F 47.8 °F 29.8 in NNW 5.4 mph 16.8 mph 41% 0 in 349 W/m2
11:26 73 °F 48 °F 29.8 in NW 8.3 mph 16.8 mph 41% 0 in 825 W/m2
11:31 74.1 °F 49.6 °F 29.8 in NNW 9.8 mph 19 mph 42% 0 in 447 W/m2
11:36 73 °F 48.6 °F 29.8 in NNW 12.1 mph 22.1 mph 42% 0 in 463 W/m2
11:41 72.5 °F 49.5 °F 29.8 in NW 11.4 mph 22.1 mph 44% 0 in 368 W/m2
11:46 72 °F 49.5 °F 29.8 in NNW 8.3 mph 22.8 mph 45% 0 in 307 W/m2
11:51 71.8 °F 49.8 °F 29.8 in NNW 8.3 mph 22.8 mph 46% 0 in 288 W/m2
11:56 71.6 °F 50.4 °F 29.8 in North 12.1 mph 18.3 mph 47% 0 in 246 W/m2
12:01 71.4 °F 50.7 °F 29.8 in North 13 mph 23.5 mph 48% 0 in 332 W/m2
12:06 72 °F 50.7 °F 29.8 in North 10.7 mph 23.5 mph 47% 0 in 998 W/m2
12:11 74.3 °F 52.9 °F 29.8 in NW 10.7 mph 21.3 mph 47% 0 in 510 W/m2
12:16 75.2 °F 51.8 °F 29.8 in NW 15.9 mph 21.3 mph 44% 0 in 1111 W/m2
12:21 76.1 °F 53.2 °F 29.8 in NNW 8.3 mph 21.3 mph 45% 0 in 1132 W/m2
12:26 75 °F 52.3 °F 29.8 in NW 9.2 mph 22.1 mph 45% 0 in 810 W/m2
12:31 73.2 °F 50 °F 29.8 in NW 13.6 mph 22.1 mph 44% 0 in 341 W/m2
12:36 72.1 °F 50.2 °F 29.8 in NW 9.2 mph 21.3 mph 46% 0 in 460 W/m2
12:41 72.5 °F 50 °F 29.8 in NW 10.7 mph 21.3 mph 45% 0 in 1213 W/m2
12:46 74.1 °F 52 °F 29.8 in NNW 14.5 mph 22.1 mph 46% 0 in 889 W/m2
12:51 72.7 °F 50.2 °F 29.8 in NNW 9.2 mph 25.9 mph 45% 0 in 1136 W/m2
12:56 73.2 °F 50.5 °F 29.8 in NNW 17.4 mph 29.8 mph 45% 0 in 363 W/m2
13:01 71.8 °F 49.3 °F 29.7 in North 15.2 mph 29.8 mph 45% 0 in 344 W/m2
13:06 71.6 °F 50.4 °F 29.7 in NNW 13.6 mph 29.8 mph 47% 0 in 328 W/m2
13:11 70.7 °F 51.6 °F 29.7 in NNW 17.4 mph 25.9 mph 51% 0 in 209 W/m2
13:17 70 °F 51.6 °F 29.7 in North 17.4 mph 25.9 mph 52% 0 in 167 W/m2
13:22 69.4 °F 51.6 °F 29.7 in North 14.5 mph 22.8 mph 53% 0 in 155 W/m2
13:27 69.1 °F 51.8 °F 29.7 in NNW 13 mph 22.1 mph 54% 0 in 142 W/m2
13:32 69.1 °F 51.8 °F 29.7 in NNW 11.4 mph 20.6 mph 54% 0 in 148 W/m2
13:37 69.1 °F 51.8 °F 29.7 in NNW 13.6 mph 23.5 mph 54% 0 in 380 W/m2
13:42 69.6 °F 51.8 °F 29.7 in NNW 13 mph 25.9 mph 53% 0 in 198 W/m2
13:47 69.8 °F 51.4 °F 29.7 in NNW 9.8 mph 25.9 mph 52% 0 in 233 W/m2
13:52 70.3 °F 52 °F 29.7 in North 14.5 mph 21.3 mph 52% 0 in 549 W/m2
13:57 71.4 °F 52.3 °F 29.7 in North 6.9 mph 24.4 mph 51% 0 in 767 W/m2
14:02 72.9 °F 52.5 °F 29.7 in NNW 8.3 mph 24.4 mph 49% 0 in 305 W/m2
14:07 72 °F 51.8 °F 29.7 in NNW 8.3 mph 19.7 mph 49% 0 in 251 W/m2
14:12 71.4 °F 52.3 °F 29.7 in North 8.3 mph 22.1 mph 51% 0 in 251 W/m2
14:17 71.4 °F 52.9 °F 29.7 in NNW 9.8 mph 22.1 mph 52% 0 in 242 W/m2
14:22 71.2 °F 52.7 °F 29.7 in NNW 13.6 mph 21.3 mph 52% 0 in 237 W/m2
14:27 71.2 °F 52.7 °F 29.7 in North 9.2 mph 21.3 mph 52% 0 in 248 W/m2
14:32 71.4 °F 52.9 °F 29.7 in North 9.8 mph 19.7 mph 52% 0 in 340 W/m2
14:37 72.1 °F 53.1 °F 29.7 in NNE 6.9 mph 19.7 mph 51% 0 in 654 W/m2
14:42 73 °F 53.2 °F 29.7 in North 8.3 mph 19.7 mph 50% 0 in 341 W/m2
14:47 73 °F 53.2 °F 29.7 in North 7.6 mph 18.3 mph 50% 0 in 341 W/m2
14:52 72.7 °F 53.4 °F 29.7 in NNW 8.3 mph 18.3 mph 51% 0 in 313 W/m2
14:57 73 °F 52.9 °F 29.7 in NNW 9.8 mph 21.3 mph 49% 0 in 346 W/m2
15:02 72.9 °F 52.5 °F 29.7 in NNW 9.8 mph 28.2 mph 49% 0 in 308 W/m2
15:07 73 °F 52.2 °F 29.7 in NW 14.5 mph 28.2 mph 48% 0 in 236 W/m2
15:23 73.2 °F 51.8 °F 29.7 in NNW 12.1 mph 22.8 mph 47% 0 in 260 W/m2
15:28 73.4 °F 52.5 °F 29.7 in NW 6.9 mph 18.3 mph 48% 0 in 356 W/m2
15:33 73.6 °F 52.2 °F 29.7 in NNW 9.2 mph 17.4 mph 47% 0 in 298 W/m2
15:38 73.6 °F 52.2 °F 29.7 in NNW 13.6 mph 18.3 mph 47% 0 in 249 W/m2
15:43 73.2 °F 52.3 °F 29.7 in NW 12.1 mph 19.7 mph 48% 0 in 249 W/m2
15:48 72.7 °F 51.3 °F 29.7 in NW 10.7 mph 20.6 mph 47% 0 in 267 W/m2
15:53 72.7 °F 52 °F 29.7 in NW 13 mph 20.6 mph 48% 0 in 233 W/m2
15:58 72.7 °F 52.3 °F 29.7 in NNW 14.5 mph 22.8 mph 49% 0 in 231 W/m2
16:03 72.7 °F 52.3 °F 29.7 in NNW 9.2 mph 22.8 mph 49% 0 in 278 W/m2
16:08 72.9 °F 52.5 °F 29.7 in NNW 10.7 mph 22.8 mph 49% 0 in 254 W/m2
16:13 72.9 °F 52.5 °F 29.7 in NW 16.8 mph 25.9 mph 49% 0 in 181 W/m2
16:18 72.3 °F 52.7 °F 29.6 in NW 9.8 mph 25.9 mph 50% 0 in 174 W/m2
16:23 72.3 °F 52.7 °F 29.6 in NW 11.4 mph 24.4 mph 50% 0 in 211 W/m2
16:28 72.3 °F 52.7 °F 29.6 in NW 13 mph 24.4 mph 50% 0 in 179 W/m2
16:33 72.3 °F 52.7 °F 29.6 in NW 13 mph 28.9 mph 50% 0 in 139 W/m2
16:38 72.1 °F 53.1 °F 29.6 in NNW 18.3 mph 28.9 mph 51% 0 in 110 W/m2
16:55 72.1 °F 53.1 °F 29.6 in NNW 16.8 mph 24.4 mph 51% 0 in 102 W/m2
17:00 72.1 °F 53.1 °F 29.6 in NNW 12.1 mph 24.4 mph 51% 0 in 135 W/m2
17:05 72.1 °F 53.1 °F 29.6 in NNW 12.1 mph 24.4 mph 51% 0 in 118 W/m2
17:10 72.1 °F 53.6 °F 29.6 in NNW 9.8 mph 22.1 mph 52% 0 in 170 W/m2
17:15 72 °F 53.4 °F 29.6 in North 12.1 mph 22.1 mph 52% 0 in 124 W/m2
17:20 71.8 °F 53.2 °F 29.6 in NNW 19 mph 30.4 mph 52% 0 in 174 W/m2
17:26 72.3 °F 53.8 °F 29.6 in NNW 11.4 mph 30.4 mph 52% 0 in 572 W/m2
17:31 74.7 °F 54.3 °F 29.6 in NNW 10.7 mph 19.7 mph 49% 0 in 282 W/m2
17:36 74.1 °F 53.8 °F 29.6 in NNW 6.9 mph 22.1 mph 49% 0 in 193 W/m2
17:41 73.2 °F 54 °F 29.6 in North 13 mph 22.1 mph 51% 0 in 200 W/m2
17:46 72.7 °F 54.1 °F 29.6 in North 13 mph 20.6 mph 52% 0 in 181 W/m2
17:51 72.9 °F 54.1 °F 29.6 in NNW 9.8 mph 20.6 mph 52% 0 in 190 W/m2
17:56 73 °F 54.3 °F 29.6 in NNW 6 mph 19.7 mph 52% 0 in 221 W/m2
18:01 74.8 °F 55.6 °F 29.6 in North 6.9 mph 18.3 mph 51% 0 in 386 W/m2
18:06 74.1 °F 54.3 °F 29.6 in North 9.8 mph 19.7 mph 50% 0 in 189 W/m2
18:11 74.1 °F 55.4 °F 29.6 in North 6.9 mph 19.7 mph 52% 0 in 475 W/m2
18:16 75.4 °F 54.9 °F 29.6 in North 10.7 mph 18.3 mph 49% 0 in 404 W/m2
18:21 74.7 °F 55.4 °F 29.6 in North 9.2 mph 19.7 mph 51% 0 in 325 W/m2
18:26 74.7 °F 55.4 °F 29.6 in NNW 10.7 mph 21.3 mph 51% 0 in 308 W/m2
18:31 75.2 °F 54.9 °F 29.6 in NNW 9.2 mph 21.3 mph 49% 0 in 289 W/m2
18:36 75.4 °F 54.9 °F 29.6 in NNW 7.6 mph 18.3 mph 49% 0 in 286 W/m2
18:41 75.6 °F 55 °F 29.6 in NNW 6 mph 12.1 mph 49% 0 in 122 W/m2
18:46 75.7 °F 55.2 °F 29.6 in NNW 3.1 mph 15.2 mph 49% 0 in 310 W/m2
18:51 76.5 °F 55.2 °F 29.6 in NNW 3.8 mph 15.2 mph 48% 0 in 164 W/m2
18:56 75.4 °F 54.9 °F 29.6 in NW 5.4 mph 14.5 mph 49% 0 in 235 W/m2
19:01 74.3 °F 55 °F 29.6 in NW 6 mph 14.5 mph 51% 0 in 93 W/m2
19:06 73 °F 55.4 °F 29.6 in NNW 6 mph 16.8 mph 54% 0 in 132 W/m2
19:11 73 °F 55.4 °F 29.6 in NNW 8.3 mph 16.8 mph 54% 0 in 105 W/m2
19:16 73 °F 55.9 °F 29.6 in NNW 6.9 mph 13 mph 55% 0 in 105 W/m2
19:22 72.7 °F 55.6 °F 29.6 in NNW 3.8 mph 13 mph 55% 0 in 90 W/m2
19:27 72.9 °F 55.8 °F 29.6 in NNW 4.5 mph 13 mph 55% 0 in 91 W/m2
19:32 73 °F 55.9 °F 29.6 in NNW 6 mph 15.9 mph 55% 0 in 42 W/m2
19:37 72.3 °F 55.2 °F 29.6 in NNW 9.2 mph 18.3 mph 55% 0 in 35 W/m2
19:42 72 °F 55.4 °F 29.6 in NW 9.2 mph 19.7 mph 56% 0 in 47 W/m2
19:47 72.3 °F 55.8 °F 29.6 in NW 8.3 mph 19.7 mph 56% 0 in 98 W/m2
19:52 72.7 °F 55.6 °F 29.6 in NW 7.6 mph 18.3 mph 55% 0 in 87 W/m2
20:10 71.1 °F 55.9 °F 29.6 in NW 6 mph 17.4 mph 59% 0 in 24 W/m2
20:15 70.7 °F 56.1 °F 29.6 in NW 6 mph 16.8 mph 60% 0 in 14 W/m2
20:20 70.5 °F 55.9 °F 29.6 in NNW 9.8 mph 14.5 mph 60% 0 in 12 W/m2
20:25 70.3 °F 56.3 °F 29.6 in NNW 8.3 mph 14.5 mph 61% 0 in 8 W/m2
20:30 70.2 °F 56.1 °F 29.6 in NW 9.8 mph 20.6 mph 61% 0 in 5 W/m2
20:35 70.2 °F 56.1 °F 29.6 in NW 7.6 mph 20.6 mph 61% 0 in 2 W/m2
20:40 69.8 °F 56.1 °F 29.6 in NW 7.6 mph 14.5 mph 62% 0 in 0 W/m2
20:45 69.6 °F 56.5 °F 29.6 in NW 9.2 mph 15.2 mph 63% 0 in 0 W/m2
20:50 69.6 °F 56.5 °F 29.6 in NNW 8.3 mph 17.4 mph 63% 0 in 0 W/m2
20:55 69.4 °F 56.3 °F 29.6 in NNW 12.1 mph 19.7 mph 63% 0 in 0 W/m2
21:00 69.3 °F 56.1 °F 29.6 in NNW 10.7 mph 19.7 mph 63% 0 in 0 W/m2
21:05 69.3 °F 56.1 °F 29.6 in NNW 11.4 mph 20.6 mph 63% 0 in 0 W/m2
21:10 69.3 °F 56.1 °F 29.6 in North 12.1 mph 20.6 mph 63% 0 in 0 W/m2
21:15 69.1 °F 55.9 °F 29.6 in NNW 5.4 mph 19 mph 63% 0 in 0 W/m2
21:20 68.9 °F 55.4 °F 29.6 in NNW 9.2 mph 19 mph 62% 0 in 0 W/m2
21:25 68.9 °F 55.4 °F 29.6 in NW 4.5 mph 18.3 mph 62% 0 in 0 W/m2
21:31 68.7 °F 53.8 °F 29.6 in NW 6 mph 13.6 mph 59% 0 in 0 W/m2
21:36 68.5 °F 52.7 °F 29.6 in NNW 5.4 mph 11.4 mph 57% 0 in 0 W/m2
21:41 68.5 °F 51.3 °F 29.6 in NW 0.7 mph 9.8 mph 54% 0 in 0 W/m2
21:46 68.2 °F 50.4 °F 29.7 in NW 3.1 mph 9.8 mph 53% 0 in 0 W/m2
21:51 68.2 °F 49.8 °F 29.7 in NW 3.1 mph 13 mph 52% 0 in 0 W/m2
21:56 68 °F 48.7 °F 29.7 in WNW 3.1 mph 13 mph 50% 0 in 0 W/m2
22:01 68.2 °F 48.4 °F 29.7 in WNW 2.2 mph 7.6 mph 49% 0 in 0 W/m2
22:06 68 °F 47.7 °F 29.7 in West 1.6 mph 6.9 mph 48% 0 in 0 W/m2
22:11 67.8 °F 48.6 °F 29.7 in WSW 3.1 mph 5.4 mph 50% 0 in 0 W/m2
22:16 67.3 °F 49.1 °F 29.7 in WSW 1.6 mph 4.5 mph 52% 0 in 0 W/m2
22:21 67.5 °F 47.7 °F 29.7 in WSW 6.9 mph 12.1 mph 49% 0 in 0 W/m2
22:26 67.6 °F 46 °F 29.7 in West 5.4 mph 12.1 mph 46% 0 in 0 W/m2
22:31 67.6 °F 45.7 °F 29.7 in West 5.4 mph 14.5 mph 45% 0 in 0 W/m2
22:36 67.5 °F 45.3 °F 29.7 in WSW 3.8 mph 14.5 mph 45% 0 in 0 W/m2
22:41 67.3 °F 45.1 °F 29.7 in West 10.7 mph 15.9 mph 45% 0 in 0 W/m2
22:46 67.1 °F 45.1 °F 29.7 in West 3.8 mph 15.9 mph 45% 0 in 0 W/m2
22:51 66.9 °F 45.5 °F 29.7 in SW 5.4 mph 15.9 mph 46% 0 in 0 W/m2
22:56 66.7 °F 45.3 °F 29.7 in WSW 8.3 mph 15.2 mph 46% 0 in 0 W/m2
23:01 66.4 °F 46 °F 29.7 in WSW 6.9 mph 15.2 mph 48% 0 in 0 W/m2
23:06 66 °F 49.5 °F 29.7 in SW 8.3 mph 13.6 mph 55% 0 in 0 W/m2
23:11 65.7 °F 44.2 °F 29.7 in SW 14.5 mph 24.4 mph 46% 0 in 0 W/m2
23:16 66 °F 43 °F 29.7 in WSW 10.7 mph 24.4 mph 43% 0 in 0 W/m2
23:21 65.8 °F 39.6 °F 29.7 in SW 12.1 mph 24.4 mph 38% 0 in 0 W/m2
23:26 65.7 °F 40.1 °F 29.8 in WSW 9.8 mph 21.3 mph 39% 0 in 0 W/m2
23:31 65.3 °F 41 °F 29.8 in West 12.1 mph 22.1 mph 41% 0 in 0 W/m2
23:36 65.1 °F 40.3 °F 29.8 in WSW 8.3 mph 22.1 mph 40% 0 in 0 W/m2
23:41 64.9 °F 41.4 °F 29.8 in WSW 15.2 mph 22.1 mph 42% 0 in 0 W/m2
23:46 64.8 °F 41.7 °F 29.8 in SW 16.8 mph 23.5 mph 43% 0 in 0 W/m2
23:51 64.8 °F 43 °F 29.8 in SW 12.1 mph 23.5 mph 45% 0 in 0 W/m2
23:56 64.6 °F 41.5 °F 29.8 in WSW 13.6 mph 23.5 mph 43% 0 in 0 W/m2
Northern Hawkes Bay. New Zealand Historic Data
Compliments of Weather Underground - 2 mb